| time (UTC) | temp C | wind direction | speed KPH | gust KPH | rain 1hr cm | rain 24hr cm | rain mn cm | humidity % | barometer mb |
| 20260509054516 | 12 | 59 | 1.6 | 4.8 | 0.00 | 0.94 | 0.00 | 93 | 1010.7 |
| 20260509053033 | 12 | 70 | 1.6 | 6.4 | 0.00 | 0.94 | 0.00 | 93 | 1010.8 |
| 20260509051530 | 12 | 26 | 3.2 | 6.4 | 0.00 | 0.94 | 0.00 | 93 | 1010.8 |
| 20260509050029 | 12 | 50 | 1.6 | 4.8 | 0.00 | 0.94 | 0.00 | 93 | 1010.7 |
| 20260509044516 | 12 | 51 | 3.2 | 9.7 | 0.00 | 0.94 | 0.00 | 93 | 1010.6 |
| 20260509043033 | 12 | 38 | 1.6 | 4.8 | 0.00 | 0.94 | 0.00 | 93 | 1010.6 |
| 20260509041524 | 12 | 68 | 1.6 | 6.4 | 0.00 | 0.94 | 0.00 | 93 | 1010.7 |
| 20260509040025 | 12 | 50 | 3.2 | 6.4 | 0.03 | 0.94 | 0.00 | 93 | 1010.4 |
| 20260509034512 | 12 | 43 | 3.2 | 6.4 | 0.03 | 0.94 | 0.94 | 93 | 1010.6 |
| 20260509033020 | 12 | 47 | 0.0 | 4.8 | 0.05 | 0.94 | 0.94 | 93 | 1010.6 |
| 20260509031529 | 12 | 46 | 1.6 | 6.4 | 0.08 | 0.94 | 0.94 | 93 | 1010.6 |
| 20260509030029 | 12 | 45 | 3.2 | 6.4 | 0.10 | 0.91 | 0.91 | 92 | 1010.8 |
| 20260509024529 | 12 | 65 | 3.2 | 8.0 | 0.10 | 0.91 | 0.91 | 92 | 1010.8 |
| 20260509023016 | 12 | 32 | 3.2 | 9.7 | 0.08 | 0.89 | 0.89 | 91 | 1011.0 |
| 20260509021522 | 12 | 43 | 4.8 | 9.7 | 0.08 | 0.86 | 0.86 | 90 | 1010.9 |
| 20260509020026 | 12 | 58 | 6.4 | 14.5 | 0.05 | 0.81 | 0.81 | 92 | 1010.8 |
| 20260509014527 | 12 | 60 | 3.2 | 11.3 | 0.05 | 0.81 | 0.81 | 93 | 1010.6 |
| 20260509013014 | 12 | 58 | 1.6 | 6.4 | 0.08 | 0.81 | 0.81 | 93 | 1010.7 |
| 20260509011517 | 12 | 46 | 3.2 | 4.8 | 0.08 | 0.79 | 0.79 | 93 | 1010.6 |
| 20260509010011 | 12 | 65 | 0.0 | 3.2 | 0.10 | 0.76 | 0.76 | 93 | 1010.7 |
| 20260509004505 | 12 | 37 | 3.2 | 4.8 | 0.15 | 0.76 | 0.76 | 93 | 1010.6 |
| 20260509003010 | 12 | 55 | 0.0 | 4.8 | 0.15 | 0.74 | 0.74 | 93 | 1010.7 |
| 20260509001516 | 12 | 35 | 3.2 | 6.4 | 0.15 | 0.71 | 0.71 | 93 | 1010.8 |
| 20260509000035 | 12 | 57 | 1.6 | 6.4 | 0.20 | 0.66 | 0.66 | 92 | 1011.0 |
| 20260508234503 | 12 | 34 | 3.2 | 4.8 | 0.15 | 0.61 | 0.61 | 92 | 1010.9 |
| 20260508233007 | 12 | 41 | 3.2 | 4.8 | 0.25 | 0.58 | 0.58 | 92 | 1011.0 |
| 20260508231512 | 12 | 37 | 1.6 | 6.4 | 0.28 | 0.56 | 0.56 | 92 | 1011.2 |
| 20260508230017 | 12 | 56 | 1.6 | 3.2 | 0.28 | 0.46 | 0.46 | 92 | 1011.2 |
| 20260508224540 | 12 | 38 | 1.6 | 4.8 | 0.36 | 0.46 | 0.46 | 91 | 1011.1 |
| 20260508223005 | 12 | 48 | 0.0 | 1.6 | 0.25 | 0.33 | 0.33 | 91 | 1011.5 |
| 20260508221508 | 12 | 88 | 0.0 | 1.6 | 0.25 | 0.28 | 0.28 | 90 | 1011.3 |
| 20260508220023 | 13 | 94 | 1.6 | 3.2 | 0.18 | 0.18 | 0.18 | 88 | 1011.6 |
| 20260508214528 | 13 | 77 | 0.0 | 6.4 | 0.10 | 0.10 | 0.10 | 86 | 1011.3 |
| 20260508213031 | 13 | 83 | 4.8 | 16.1 | 0.08 | 0.08 | 0.08 | 84 | 1011.2 |
| 20260508211510 | 15 | 94 | 4.8 | 9.7 | 0.03 | 0.03 | 0.03 | 74 | 1011.2 |
| 20260508210016 | 17 | 73 | 1.6 | 4.8 | 0.00 | 0.00 | 0.00 | 60 | 1010.8 |
| 20260508204519 | 17 | 71 | 1.6 | 3.2 | 0.00 | 0.00 | 0.00 | 57 | 1010.7 |
| 20260508203023 | 17 | 72 | 0.0 | 6.4 | 0.00 | 0.00 | 0.00 | 54 | 1010.8 |
| 20260508201506 | 18 | 61 | 1.6 | 4.8 | 0.00 | 0.00 | 0.00 | 53 | 1011.2 |
| 20260508200027 | 17 | 62 | 0.0 | 6.4 | 0.00 | 0.00 | 0.00 | 54 | 1011.2 |
| 20260508194516 | 17 | 64 | 3.2 | 8.0 | 0.00 | 0.00 | 0.00 | 53 | 1011.3 |
| 20260508193021 | 17 | 66 | 0.0 | 6.4 | 0.00 | 0.00 | 0.00 | 55 | 1011.6 |
| 20260508191523 | 17 | 60 | 3.2 | 6.4 | 0.00 | 0.00 | 0.00 | 53 | 1011.8 |
| 20260508190014 | 17 | 57 | 1.6 | 6.4 | 0.00 | 0.00 | 0.00 | 53 | 1012.1 |
| 20260508184518 | 17 | 72 | 4.8 | 6.4 | 0.00 | 0.00 | 0.00 | 52 | 1012.3 |
| 20260508183017 | 17 | 65 | 1.6 | 9.7 | 0.00 | 0.00 | 0.00 | 52 | 1012.4 |
| 20260508181524 | 17 | 72 | 3.2 | 11.3 | 0.00 | 0.00 | 0.00 | 50 | 1012.5 |
| 20260508180026 | 17 | 62 | 3.2 | 11.3 | 0.00 | 0.00 | 0.00 | 48 | 1012.5 |
| 20260508174510 | 18 | 39 | 6.4 | 20.9 | 0.00 | 0.00 | 0.00 | 47 | 1012.5 |
| 20260508173017 | 20 | 11 | 6.4 | 12.9 | 0.00 | 0.00 | 0.00 | 45 | 1012.7 |
| 20260508171532 | 19 | 22 | 11.3 | 17.7 | 0.00 | 0.00 | 0.00 | 46 | 1012.7 |
| 20260508170027 | 19 | 24 | 8.0 | 12.9 | 0.00 | 0.00 | 0.00 | 48 | 1013.2 |
| 20260508164526 | 18 | 16 | 6.4 | 12.9 | 0.00 | 0.00 | 0.00 | 48 | 1013.5 |
| 20260508163012 | 18 | 54 | 3.2 | 12.9 | 0.00 | 0.00 | 0.00 | 47 | 1013.8 |
| 20260508161504 | 18 | 96 | 4.8 | 11.3 | 0.00 | 0.00 | 0.00 | 47 | 1013.7 |
| 20260508160004 | 17 | 68 | 4.8 | 9.7 | 0.00 | 0.00 | 0.00 | 48 | 1013.9 |
| 20260508154506 | 17 | 70 | 4.8 | 11.3 | 0.00 | 0.00 | 0.00 | 49 | 1014.0 |
| 20260508153010 | 16 | 76 | 3.2 | 11.3 | 0.00 | 0.00 | 0.00 | 50 | 1014.3 |
| 20260508151515 | 17 | 64 | 4.8 | 11.3 | 0.00 | 0.00 | 0.00 | 49 | 1014.3 |
| 20260508150003 | 17 | 65 | 4.8 | 11.3 | 0.00 | 0.00 | 0.00 | 49 | 1014.3 |
| 20260508144505 | 16 | 70 | 4.8 | 11.3 | 0.00 | 0.00 | 0.00 | 50 | 1014.4 |
| 20260508143016 | 16 | 65 | 3.2 | 9.7 | 0.00 | 0.00 | 0.00 | 51 | 1014.5 |
| 20260508141520 | 15 | 78 | 3.2 | 11.3 | 0.00 | 0.00 | 0.00 | 53 | 1014.6 |
| 20260508140019 | 15 | 53 | 4.8 | 11.3 | 0.00 | 0.00 | 0.00 | 52 | 1014.7 |
| 20260508134502 | 15 | 65 | 3.2 | 14.5 | 0.00 | 0.00 | 0.00 | 51 | 1014.8 |
| 20260508133006 | 15 | 75 | 4.8 | 9.7 | 0.00 | 0.00 | 0.00 | 51 | 1014.9 |
| 20260508131513 | 14 | 72 | 6.4 | 9.7 | 0.00 | 0.00 | 0.00 | 52 | 1014.9 |
| 20260508130020 | 14 | 58 | 3.2 | 6.4 | 0.00 | 0.00 | 0.00 | 53 | 1015.0 |
| 20260508124521 | 13 | 85 | 1.6 | 4.8 | 0.00 | 0.00 | 0.00 | 53 | 1014.9 |
| 20260508123007 | 13 | 74 | 1.6 | 3.2 | 0.00 | 0.00 | 0.00 | 55 | 1014.8 |
| 20260508121510 | 12 | 71 | 0.0 | 3.2 | 0.00 | 0.00 | 0.00 | 57 | 1014.9 |
| 20260508120019 | 11 | 74 | 0.0 | 1.6 | 0.00 | 0.00 | 0.00 | 60 | 1014.9 |
| 20260508114527 | 10 | 78 | 0.0 | 1.6 | 0.00 | 0.00 | 0.00 | 63 | 1014.8 |
| 20260508113034 | 10 | 79 | 0.0 | 1.6 | 0.00 | 0.00 | 0.00 | 63 | 1014.7 |
| 20260508111505 | 10 | 53 | 0.0 | 3.2 | 0.00 | 0.00 | 0.00 | 64 | 1014.7 |
| 20260508110008 | 10 | 109 | 1.6 | 4.8 | 0.00 | 0.00 | 0.00 | 61 | 1014.5 |
| 20260508104515 | 10 | 50 | 1.6 | 4.8 | 0.00 | 0.00 | 0.00 | 60 | 1014.3 |
| 20260508103018 | 10 | 49 | 1.6 | 6.4 | 0.00 | 0.00 | 0.00 | 60 | 1014.3 |
| 20260508101530 | 10 | 53 | 0.0 | 3.2 | 0.00 | 0.00 | 0.00 | 60 | 1014.2 |
| 20260508100009 | 10 | 58 | 0.0 | 3.2 | 0.00 | 0.00 | 0.00 | 62 | 1014.2 |
| 20260508094513 | 10 | 63 | 0.0 | 4.8 | 0.00 | 0.00 | 0.00 | 61 | 1014.3 |
| 20260508093016 | 10 | 53 | 1.6 | 3.2 | 0.00 | 0.00 | 0.00 | 59 | 1014.4 |
| 20260508091523 | 11 | 63 | 1.6 | 3.2 | 0.00 | 0.00 | 0.00 | 57 | 1014.4 |
| 20260508090033 | 11 | 59 | 1.6 | 6.4 | 0.00 | 0.00 | 0.00 | 56 | 1014.4 |
| 20260508084508 | 11 | 40 | 1.6 | 4.8 | 0.00 | 0.00 | 0.00 | 55 | 1014.5 |
| 20260508083015 | 11 | 44 | 1.6 | 3.2 | 0.00 | 0.00 | 0.00 | 55 | 1014.7 |
| 20260508081519 | 11 | 66 | 0.0 | 4.8 | 0.00 | 0.00 | 0.00 | 56 | 1014.8 |
| 20260508080024 | 11 | 74 | 1.6 | 6.4 | 0.00 | 0.00 | 0.00 | 54 | 1014.9 |
| 20260508074526 | 11 | 88 | 1.6 | 8.0 | 0.00 | 0.00 | 0.00 | 54 | 1014.9 |
| 20260508073012 | 11 | 31 | 1.6 | 4.8 | 0.00 | 0.00 | 0.00 | 55 | 1014.8 |
| 20260508071515 | 11 | 61 | 4.8 | 8.0 | 0.00 | 0.00 | 0.00 | 55 | 1014.8 |
| 20260508070021 | 11 | 55 | 3.2 | 8.0 | 0.00 | 0.00 | 0.00 | 55 | 1014.7 |
| 20260508064547 | 11 | 72 | 3.2 | 6.4 | 0.00 | 0.00 | 0.00 | 53 | 1015.0 |
| 20260508063010 | 11 | 60 | 1.6 | 9.7 | 0.00 | 0.00 | 0.00 | 53 | 1015.2 |
| 20260508061514 | 11 | 69 | 3.2 | 8.0 | 0.00 | 0.00 | 0.00 | 53 | 1015.1 |
| 20260508060018 | 11 | 56 | 1.6 | 8.0 | 0.00 | 0.00 | 0.00 | 54 | 1015.1 |